Terminal Aerodrome Forecast
Issued by NWS

Current Version | Previous Version | Text Only | Print | Product List | Glossary Off
Versions: 1 2 3 4 5 6 7 8 9 10 11 12 13 14 15 16 17 18 19 20 21 22 23 24 25 26

000
FTUS41 KILN 311400 AAA
TAFLUK
TAF AMD
KLUK 311455Z 3115/0112 21006KT P6SM BKN250
     FM010200 20004KT P6SM SCT030 OVC090
      TEMPO 0103/0106 3SM -RA OVC030
     FM010600 18004KT P6SM VCSH SCT025 OVC100
      TEMPO 0106/0110 BKN025
     FM011000 15006KT P6SM OVC080=

USA.gov is the U.S. government's official web portal to all federal, state and local government web resources and services.